createdAt,value
2018-06-02T00:00:37.284Z,18.83
2018-06-02T00:02:39.009Z,18.95
2018-06-02T00:04:40.448Z,18.91
2018-06-02T00:06:41.861Z,18.73
2018-06-02T00:08:43.286Z,18.64
2018-06-02T00:10:44.706Z,18.70
2018-06-02T00:12:46.130Z,18.74
2018-06-02T00:14:47.607Z,18.83
2018-06-02T00:16:49.024Z,18.83
2018-06-02T00:18:50.550Z,18.83
2018-06-02T00:20:51.971Z,18.74
2018-06-02T00:22:53.394Z,18.73
2018-06-02T00:24:54.820Z,18.73
2018-06-02T00:26:56.391Z,18.77
2018-06-02T00:28:57.815Z,18.72
2018-06-02T00:30:59.349Z,18.68
2018-06-02T00:33:00.801Z,18.67
2018-06-02T00:35:02.385Z,18.65
2018-06-02T00:37:04.107Z,18.80
2018-06-02T00:39:05.626Z,18.76
2018-06-02T00:41:07.115Z,18.61
2018-06-02T00:43:08.551Z,18.57
2018-06-02T00:45:10.256Z,18.43
2018-06-02T00:47:11.999Z,18.46
2018-06-02T00:49:13.727Z,18.52
2018-06-02T00:51:15.461Z,18.47
2018-06-02T00:53:17.157Z,18.47
2018-06-02T00:55:18.877Z,18.54
2018-06-02T00:57:20.428Z,18.42
2018-06-02T00:59:22.170Z,18.37
2018-06-02T01:01:23.701Z,18.22
2018-06-02T01:03:25.233Z,18.24
2018-06-02T01:05:26.822Z,18.15
2018-06-02T01:07:28.562Z,18.02
2018-06-02T01:09:30.349Z,18.10
2018-06-02T01:11:31.838Z,18.18
2018-06-02T01:13:33.622Z,18.22
2018-06-02T01:15:35.354Z,18.29
2018-06-02T01:17:37.111Z,18.31
2018-06-02T01:19:38.654Z,18.33
2018-06-02T01:21:40.137Z,18.34
2018-06-02T01:23:41.661Z,18.34
2018-06-02T01:25:43.217Z,18.18
2018-06-02T01:27:44.703Z,18.13
2018-06-02T01:29:46.471Z,18.27
2018-06-02T01:31:47.894Z,18.22
2018-06-02T01:33:49.647Z,18.22
2018-06-02T01:35:51.402Z,18.34
2018-06-02T01:37:53.019Z,18.34
2018-06-02T01:39:54.523Z,18.50
2018-06-02T01:41:56.247Z,18.50
2018-06-02T01:43:57.949Z,18.55
2018-06-02T01:45:59.740Z,18.47
2018-06-02T01:48:01.545Z,18.59
2018-06-02T01:50:03.237Z,18.68
2018-06-02T01:52:05.027Z,18.58
2018-06-02T01:54:47.461Z,18.67
2018-06-02T01:56:48.887Z,18.58
2018-06-02T01:58:50.366Z,18.64
2018-06-02T02:00:52.401Z,18.52
2018-06-02T02:02:54.091Z,18.57
2018-06-02T02:05:36.729Z,18.34
2018-06-02T02:07:38.155Z,18.37
2018-06-02T02:09:40.246Z,18.36
2018-06-02T02:11:41.716Z,18.18
2018-06-02T02:14:24.128Z,18.03
2018-06-02T02:16:25.588Z,17.87
2018-06-02T02:18:26.996Z,17.85
2018-06-02T02:20:29.030Z,17.91
2018-06-02T02:22:30.467Z,18.04
2018-06-02T02:25:12.888Z,17.97
2018-06-02T02:27:14.313Z,18.02
2018-06-02T02:29:16.189Z,17.91
2018-06-02T02:31:17.686Z,17.95
2018-06-02T02:33:19.305Z,17.89
2018-06-02T02:36:02.335Z,18.00
2018-06-02T02:38:03.737Z,18.03
2018-06-02T02:40:05.172Z,18.13
2018-06-02T02:42:06.608Z,18.15
2018-06-02T02:44:49.321Z,18.07
2018-06-02T02:46:50.768Z,17.92
2018-06-02T02:48:52.170Z,17.91
2018-06-02T02:50:53.594Z,17.87
2018-06-02T02:52:55.086Z,18.00
2018-06-02T02:55:37.735Z,17.94
2018-06-02T02:57:39.589Z,17.88
2018-06-02T02:59:41.009Z,18.00
2018-06-02T03:01:43.001Z,18.00
2018-06-02T03:03:44.520Z,18.21
2018-06-02T03:05:45.945Z,18.24
2018-06-02T03:07:47.418Z,18.29
2018-06-02T03:09:48.844Z,18.29
2018-06-02T03:11:50.330Z,18.34
2018-06-02T03:13:51.860Z,18.40
2018-06-02T03:15:53.289Z,18.31
2018-06-02T03:17:55.038Z,18.18
2018-06-02T03:19:56.599Z,18.24
2018-06-02T03:21:58.336Z,18.18
2018-06-02T03:23:59.857Z,18.29
2018-06-02T03:26:01.409Z,18.33
2018-06-02T03:28:02.863Z,18.29
2018-06-02T03:30:04.709Z,18.24
2018-06-02T03:32:06.523Z,18.28
2018-06-02T03:34:08.347Z,18.29
2018-06-02T03:36:10.180Z,18.27
2018-06-02T03:38:11.673Z,18.22
2018-06-02T03:40:13.191Z,18.21
2018-06-02T03:42:15.015Z,18.31
2018-06-02T03:44:16.785Z,18.18
2018-06-02T03:46:18.603Z,18.03
2018-06-02T03:48:20.441Z,18.00
2018-06-02T03:50:22.014Z,18.02
2018-06-02T03:52:23.803Z,18.07
2018-06-02T03:54:25.284Z,18.15
2018-06-02T03:56:26.802Z,18.04
2018-06-02T03:58:28.341Z,18.03
2018-06-02T04:00:30.183Z,17.97
2018-06-02T04:02:31.676Z,17.97
2018-06-02T04:04:33.167Z,18.04
2018-06-02T04:06:34.661Z,18.07
2018-06-02T04:08:36.467Z,18.04
2018-06-02T04:10:38.030Z,18.10
2018-06-02T04:12:39.542Z,18.12
2018-06-02T04:14:41.370Z,18.00
2018-06-02T04:16:42.895Z,18.02
2018-06-02T04:18:44.369Z,18.07
2018-06-02T04:20:45.944Z,18.17
2018-06-02T04:22:47.749Z,18.18
2018-06-02T04:24:49.301Z,18.29
2018-06-02T04:26:51.023Z,18.25
2018-06-02T04:28:52.530Z,18.22
2018-06-02T04:30:54.037Z,18.12
2018-06-02T04:32:55.579Z,18.18
2018-06-02T04:34:57.039Z,18.12
2018-06-02T04:36:58.574Z,18.17
2018-06-02T04:39:00.140Z,18.24
2018-06-02T04:41:01.886Z,18.31
2018-06-02T04:43:03.371Z,18.39
2018-06-02T04:45:04.914Z,18.43
2018-06-02T04:47:06.429Z,18.37
2018-06-02T04:49:08.189Z,18.27
2018-06-02T04:51:10.012Z,18.21
2018-06-02T04:53:11.752Z,18.29
2018-06-02T04:55:13.314Z,18.22
2018-06-02T04:57:14.820Z,18.13
2018-06-02T04:59:16.322Z,18.03
2018-06-02T05:01:18.112Z,18.03
2018-06-02T05:03:19.937Z,18.02
2018-06-02T05:05:21.716Z,18.03
2018-06-02T05:07:23.220Z,18.19
2018-06-02T05:09:24.819Z,18.22
2018-06-02T05:11:26.351Z,18.28
2018-06-02T05:13:27.869Z,18.33
2018-06-02T05:16:10.335Z,18.22
2018-06-02T05:18:11.773Z,18.25
2018-06-02T05:20:13.193Z,18.33
2018-06-02T05:22:14.617Z,18.36
2018-06-02T05:24:57.030Z,18.50
2018-06-02T05:26:58.494Z,18.52
2018-06-02T05:28:59.960Z,18.57
2018-06-02T05:31:01.382Z,18.59
2018-06-02T05:33:02.838Z,18.79
2018-06-02T05:35:04.335Z,18.65
2018-06-02T05:37:05.779Z,18.57
2018-06-02T05:39:07.204Z,18.42
2018-06-02T05:41:08.625Z,18.33
2018-06-02T05:43:10.050Z,18.33
2018-06-02T05:45:52.554Z,18.33
2018-06-02T05:47:53.964Z,18.43
2018-06-02T05:49:55.393Z,18.54
2018-06-02T05:51:56.979Z,18.44
2018-06-02T05:54:39.411Z,18.67
2018-06-02T05:56:40.821Z,18.64
2018-06-02T05:58:42.251Z,18.61
2018-06-02T06:00:43.684Z,18.62
2018-06-02T06:02:45.104Z,18.65
2018-06-02T06:04:46.530Z,18.57
2018-06-02T06:06:48.534Z,18.57
2018-06-02T06:08:50.060Z,18.47
2018-06-02T06:10:51.537Z,18.43
2018-06-02T06:12:53.483Z,18.37
2018-06-02T06:15:35.938Z,18.42
2018-06-02T06:17:37.368Z,18.37
2018-06-02T06:19:38.846Z,18.36
2018-06-02T06:21:40.210Z,18.37
2018-06-02T06:24:22.720Z,18.29
2018-06-02T06:26:24.180Z,18.39
2018-06-02T06:28:25.606Z,18.54
2018-06-02T06:30:27.130Z,18.46
2018-06-02T06:32:28.562Z,18.47
2018-06-02T06:34:29.986Z,18.50
2018-06-02T06:36:31.892Z,18.55
2018-06-02T06:38:33.277Z,18.57
2018-06-02T06:40:34.709Z,18.37
2018-06-02T06:42:36.232Z,18.28
2018-06-02T06:44:37.725Z,18.29
2018-06-02T06:46:39.093Z,18.28
2018-06-02T06:48:40.517Z,18.24
2018-06-02T06:50:42.008Z,18.31
2018-06-02T06:52:43.503Z,18.29
2018-06-02T06:54:45.476Z,18.12
2018-06-02T06:56:47.262Z,18.02
2018-06-02T06:58:48.851Z,18.03
2018-06-02T07:00:50.686Z,18.13
2018-06-02T07:02:52.160Z,18.17
2018-06-02T07:04:53.903Z,18.10
2018-06-02T07:06:55.409Z,18.07
2018-06-02T07:08:56.939Z,18.18
2018-06-02T07:10:58.465Z,18.29
2018-06-02T07:12:59.996Z,18.27
2018-06-02T07:15:01.678Z,18.27
2018-06-02T07:17:03.209Z,18.37
2018-06-02T07:19:04.719Z,18.43
2018-06-02T07:21:06.260Z,18.33
2018-06-02T07:23:07.819Z,18.39
2018-06-02T07:25:09.322Z,18.42
2018-06-02T07:27:10.960Z,18.43
2018-06-02T07:29:12.456Z,18.49
2018-06-02T07:31:14.036Z,18.39
2018-06-02T07:33:15.554Z,18.34
2018-06-02T07:35:17.289Z,18.34
2018-06-02T07:37:19.118Z,18.25
2018-06-02T07:39:20.677Z,18.19
2018-06-02T07:41:22.457Z,18.19
2018-06-02T07:43:24.246Z,18.29
2018-06-02T07:46:05.209Z,18.28
2018-06-02T07:48:06.625Z,18.29
2018-06-02T07:50:08.195Z,18.40
2018-06-02T07:52:09.569Z,18.36
2018-06-02T07:54:11.020Z,18.33
2018-06-02T07:56:12.776Z,18.31
2018-06-02T07:58:14.256Z,18.34
2018-06-02T08:00:15.953Z,18.36
2018-06-02T08:02:17.529Z,18.39
2018-06-02T08:04:59.944Z,18.34
2018-06-02T08:07:01.378Z,18.33
2018-06-02T08:09:02.932Z,18.33
2018-06-02T08:11:04.338Z,18.37
2018-06-02T08:13:05.813Z,18.36
2018-06-02T08:15:07.388Z,18.57
2018-06-02T08:17:08.903Z,18.59
2018-06-02T08:19:10.335Z,18.59
2018-06-02T08:21:11.765Z,18.50
2018-06-02T08:23:13.206Z,18.57
2018-06-02T08:25:55.818Z,18.67
2018-06-02T08:27:57.557Z,18.68
2018-06-02T08:29:58.986Z,18.97
2018-06-02T08:32:00.723Z,18.83
2018-06-02T08:34:02.142Z,18.80
2018-06-02T08:36:03.565Z,18.72
2018-06-02T08:38:05.012Z,18.82
2018-06-02T08:40:06.532Z,18.95
2018-06-02T08:42:08.308Z,19.20
2018-06-02T08:44:50.897Z,19.13
2018-06-02T08:46:52.327Z,19.31
2018-06-02T08:48:53.810Z,19.21
2018-06-02T08:50:55.228Z,19.24
2018-06-02T08:52:56.656Z,19.20
2018-06-02T08:55:39.256Z,19.38
2018-06-02T08:57:40.672Z,19.31
2018-06-02T08:59:42.094Z,19.24
2018-06-02T09:01:43.864Z,19.24
2018-06-02T09:03:45.288Z,19.32
2018-06-02T09:05:46.718Z,19.32
2018-06-02T09:07:48.466Z,19.43
2018-06-02T09:09:50.071Z,19.38
2018-06-02T09:11:51.565Z,19.42
2018-06-02T09:13:53.265Z,19.48
2018-06-02T09:15:55.015Z,19.58
2018-06-02T09:17:56.538Z,19.61
2018-06-02T09:19:58.045Z,19.80
2018-06-02T09:21:59.585Z,19.69
2018-06-02T09:24:01.358Z,19.46
2018-06-02T09:26:02.872Z,19.53
2018-06-02T09:28:04.411Z,19.68
2018-06-02T09:30:05.912Z,19.60
2018-06-02T09:32:07.469Z,19.66
2018-06-02T09:34:08.968Z,19.84
2018-06-02T09:36:10.703Z,19.90
2018-06-02T09:38:12.428Z,19.93
2018-06-02T09:40:13.915Z,19.83
2018-06-02T09:42:15.431Z,19.87
2018-06-02T09:44:16.954Z,19.91
2018-06-02T09:46:18.483Z,19.98
2018-06-02T09:48:20.037Z,20.05
2018-06-02T09:50:21.601Z,20.12
2018-06-02T09:52:23.029Z,20.20
2018-06-02T09:54:24.631Z,20.18
2018-06-02T09:56:26.389Z,20.24
2018-06-02T09:58:28.207Z,20.23
2018-06-02T10:00:29.664Z,20.33
2018-06-02T10:02:31.202Z,19.98
2018-06-02T10:04:32.718Z,19.90
2018-06-02T10:06:34.241Z,19.90
2018-06-02T10:08:36.023Z,19.87
2018-06-02T10:10:37.865Z,19.98
2018-06-02T10:12:39.535Z,19.97
2018-06-02T10:15:21.966Z,19.97
2018-06-02T10:17:23.410Z,20.15
2018-06-02T10:19:24.837Z,20.33
2018-06-02T10:21:26.266Z,20.35
2018-06-02T10:23:27.707Z,20.53
2018-06-02T10:26:10.239Z,20.65
2018-06-02T10:28:11.862Z,20.66
2018-06-02T10:30:13.773Z,20.62
2018-06-02T10:32:15.212Z,20.65
2018-06-02T10:34:16.758Z,20.59
2018-06-02T10:36:59.588Z,20.51
2018-06-02T10:39:01.050Z,20.54
2018-06-02T10:41:02.480Z,20.47
2018-06-02T10:43:03.937Z,20.31
2018-06-02T10:45:46.541Z,20.33
2018-06-02T10:47:47.974Z,20.03
2018-06-02T10:49:49.427Z,19.87
2018-06-02T10:51:50.876Z,19.90
2018-06-02T10:54:33.422Z,20.10
2018-06-02T10:56:34.834Z,20.30
2018-06-02T10:58:36.401Z,20.50
2018-06-02T11:00:37.832Z,20.71
2018-06-02T11:02:39.406Z,20.76
2018-06-02T11:04:40.864Z,20.81
2018-06-02T11:06:42.302Z,20.95
2018-06-02T11:08:43.728Z,21.23
2018-06-02T11:10:45.163Z,21.35
2018-06-02T11:12:46.617Z,21.26
2018-06-02T11:14:48.052Z,21.05
2018-06-02T11:16:49.601Z,21.23
2018-06-02T11:18:51.065Z,21.27
2018-06-02T11:20:52.597Z,21.32
2018-06-02T11:22:54.032Z,21.51
2018-06-02T11:24:55.611Z,21.60
2018-06-02T11:26:57.340Z,21.71
2018-06-02T11:28:58.776Z,21.75
2018-06-02T11:31:00.428Z,21.87
2018-06-02T11:33:01.887Z,21.97
2018-06-02T11:35:03.485Z,21.95
2018-06-02T11:37:05.047Z,22.06
2018-06-02T11:39:06.580Z,22.19
2018-06-02T11:41:08.250Z,22.32
2018-06-02T11:43:09.792Z,22.62
2018-06-02T11:45:11.369Z,22.64
2018-06-02T11:47:12.875Z,22.75
2018-06-02T11:49:14.400Z,22.71
2018-06-02T11:51:15.940Z,22.72
2018-06-02T11:53:17.687Z,22.72
2018-06-02T11:55:19.425Z,22.68
2018-06-02T11:57:20.890Z,22.60
2018-06-02T11:59:22.380Z,22.41
2018-06-02T12:01:23.979Z,22.38
2018-06-02T12:03:25.500Z,22.35
2018-06-02T12:05:26.996Z,22.23
2018-06-02T12:07:28.468Z,22.13
2018-06-02T12:09:30.342Z,22.02
2018-06-02T12:11:31.818Z,21.67
2018-06-02T12:13:33.490Z,21.57
2018-06-02T12:15:35.299Z,21.59
2018-06-02T12:17:36.815Z,21.24
2018-06-02T12:19:38.353Z,21.17
2018-06-02T12:21:40.012Z,21.21
2018-06-02T12:23:41.583Z,21.11
2018-06-02T12:25:43.168Z,21.06
2018-06-02T12:27:45.019Z,20.98
2018-06-02T12:29:46.514Z,20.81
2018-06-02T12:31:48.048Z,20.83
2018-06-02T12:33:49.594Z,20.80
2018-06-02T12:36:32.155Z,20.87
2018-06-02T12:38:33.584Z,20.87
2018-06-02T12:40:35.013Z,20.93
2018-06-02T12:42:36.440Z,21.13
2018-06-02T12:45:17.880Z,21.24
2018-06-02T12:47:19.391Z,21.38
2018-06-02T12:49:20.804Z,21.44
2018-06-02T12:51:22.267Z,21.45
2018-06-02T12:53:23.725Z,21.39
2018-06-02T12:55:25.123Z,21.35
2018-06-02T12:57:26.553Z,21.26
2018-06-02T12:59:28.036Z,21.39
2018-06-02T13:01:29.468Z,21.30
2018-06-02T13:03:30.902Z,21.19
2018-06-02T13:06:13.489Z,21.24
2018-06-02T13:08:14.887Z,21.29
2018-06-02T13:10:16.585Z,21.38
2018-06-02T13:12:18.065Z,21.46
2018-06-02T13:15:00.584Z,21.74
2018-06-02T13:17:02.168Z,21.71
2018-06-02T13:19:03.589Z,21.85
2018-06-02T13:21:05.379Z,22.14
2018-06-02T13:23:06.806Z,22.23
2018-06-02T13:25:08.492Z,22.22
2018-06-02T13:27:09.915Z,22.10
2018-06-02T13:29:11.732Z,22.01
2018-06-02T13:31:13.176Z,21.92
2018-06-02T13:33:14.600Z,21.91
2018-06-02T13:35:16.036Z,21.90
2018-06-02T13:37:17.505Z,21.82
2018-06-02T13:39:18.881Z,21.85
2018-06-02T13:41:20.368Z,21.94
2018-06-02T13:43:21.821Z,21.90
2018-06-02T13:45:23.278Z,21.97
2018-06-02T13:47:24.697Z,21.81
2018-06-02T13:49:26.137Z,21.72
2018-06-02T13:51:27.575Z,21.54
2018-06-02T13:53:29.007Z,21.67
2018-06-02T13:55:30.700Z,21.66
2018-06-02T13:57:32.169Z,21.57
2018-06-02T13:59:33.711Z,21.57
2018-06-02T14:01:35.132Z,21.63
2018-06-02T14:03:36.648Z,21.71
2018-06-02T14:05:38.362Z,21.66
2018-06-02T14:07:39.895Z,21.79
2018-06-02T14:09:41.312Z,21.71
2018-06-02T14:11:42.842Z,21.72
2018-06-02T14:13:44.274Z,21.78
2018-06-02T14:15:45.705Z,21.74
2018-06-02T14:17:47.123Z,21.66
2018-06-02T14:19:48.582Z,21.71
2018-06-02T14:21:50.029Z,21.61
2018-06-02T14:23:51.544Z,21.69
2018-06-02T14:25:53.078Z,21.50
2018-06-02T14:27:54.637Z,21.57
2018-06-02T14:29:56.267Z,21.63
2018-06-02T14:31:57.875Z,21.53
2018-06-02T14:33:59.353Z,21.46
2018-06-02T14:36:00.820Z,21.45
2018-06-02T14:38:02.557Z,21.61
2018-06-02T14:40:04.405Z,21.63
2018-06-02T14:42:05.957Z,21.75
2018-06-02T14:44:07.494Z,21.72
2018-06-02T14:46:50.148Z,21.72
2018-06-02T14:48:51.568Z,21.82
2018-06-02T14:50:53.002Z,21.87
2018-06-02T14:52:54.427Z,21.74
2018-06-02T14:55:36.852Z,21.83
2018-06-02T14:57:38.282Z,21.82
2018-06-02T14:59:39.715Z,21.72
2018-06-02T15:01:41.149Z,21.79
2018-06-02T15:03:42.600Z,21.92
2018-06-02T15:06:25.029Z,22.04
2018-06-02T15:08:26.528Z,22.14
2018-06-02T15:10:27.948Z,22.13
2018-06-02T15:12:29.378Z,22.25
2018-06-02T15:14:30.899Z,22.28
2018-06-02T15:16:32.714Z,22.41
2018-06-02T15:18:34.525Z,22.46
2018-06-02T15:20:36.013Z,22.44
2018-06-02T15:22:37.555Z,22.53
2018-06-02T15:25:20.227Z,22.50
2018-06-02T15:27:21.662Z,22.60
2018-06-02T15:29:23.093Z,22.54
2018-06-02T15:31:24.580Z,22.41
2018-06-02T15:33:25.957Z,22.50
2018-06-02T15:36:08.663Z,22.43
2018-06-02T15:38:10.071Z,22.37
2018-06-02T15:40:11.505Z,22.39
2018-06-02T15:42:12.965Z,22.54
2018-06-02T15:44:14.366Z,22.62
2018-06-02T15:46:15.796Z,22.59
2018-06-02T15:48:17.291Z,22.53
2018-06-02T15:50:18.746Z,22.37
2018-06-02T15:52:20.200Z,22.46
2018-06-02T15:54:21.635Z,22.47
2018-06-02T15:56:23.076Z,22.28
2018-06-02T15:58:24.498Z,22.16
2018-06-02T16:00:25.928Z,22.16
2018-06-02T16:02:27.566Z,22.19
2018-06-02T16:04:29.144Z,22.22
2018-06-02T16:06:30.587Z,22.38
2018-06-02T16:08:32.027Z,22.31
2018-06-02T16:10:33.814Z,22.34
2018-06-02T16:12:35.327Z,22.50
2018-06-02T16:14:36.849Z,22.53
2018-06-02T16:16:38.331Z,22.62
2018-06-02T16:18:39.858Z,22.78
2018-06-02T16:20:41.418Z,22.86
2018-06-02T16:22:43.295Z,22.83
2018-06-02T16:24:44.776Z,22.52
2018-06-02T16:26:46.318Z,22.35
2018-06-02T16:28:47.927Z,22.52
2018-06-02T16:30:49.461Z,22.77
2018-06-02T16:32:50.986Z,22.93
2018-06-02T16:34:52.514Z,23.04
2018-06-02T16:36:54.002Z,22.97
2018-06-02T16:39:36.600Z,23.04
2018-06-02T16:41:38.128Z,23.12
2018-06-02T16:43:39.702Z,23.12
2018-06-02T16:45:41.111Z,23.24
2018-06-02T16:47:42.549Z,23.24
2018-06-02T16:49:43.972Z,23.09
2018-06-02T16:51:45.411Z,22.99
2018-06-02T16:53:47.020Z,23.01
2018-06-02T16:55:48.800Z,23.14
2018-06-02T16:57:50.405Z,23.14
2018-06-02T16:59:51.841Z,23.12
2018-06-02T17:01:53.554Z,23.05
2018-06-02T17:03:55.092Z,22.89
2018-06-02T17:05:56.616Z,22.84
2018-06-02T17:07:58.471Z,22.68
2018-06-02T17:10:00.197Z,22.64
2018-06-02T17:12:02.013Z,22.80
2018-06-02T17:14:03.510Z,22.83
2018-06-02T17:16:05.028Z,22.94
2018-06-02T17:18:06.818Z,23.02
2018-06-02T17:20:08.377Z,23.22
2018-06-02T17:22:09.919Z,23.19
2018-06-02T17:24:11.709Z,23.17
2018-06-02T17:26:13.229Z,23.39
2018-06-02T17:28:14.771Z,23.15
2018-06-02T17:30:16.286Z,23.08
2018-06-02T17:32:17.862Z,23.02
2018-06-02T17:35:00.445Z,22.75
2018-06-02T17:37:02.175Z,22.74
2018-06-02T17:39:03.600Z,22.67
2018-06-02T17:41:05.203Z,22.59
2018-06-02T17:43:06.637Z,22.56
2018-06-02T17:45:08.325Z,22.50
2018-06-02T17:47:09.781Z,22.44
2018-06-02T17:49:11.370Z,22.47
2018-06-02T17:51:12.809Z,22.53
2018-06-02T17:53:14.234Z,22.53
2018-06-02T17:55:56.947Z,22.65
2018-06-02T17:57:58.330Z,22.60
2018-06-02T17:59:59.839Z,22.54
2018-06-02T18:02:01.354Z,22.50
2018-06-02T18:04:02.798Z,22.53
2018-06-02T18:06:45.373Z,22.52
2018-06-02T18:08:46.807Z,22.39
2018-06-02T18:10:48.242Z,22.38
2018-06-02T18:12:49.761Z,22.20
2018-06-02T18:15:32.188Z,22.23
2018-06-02T18:17:33.618Z,22.23
2018-06-02T18:19:35.054Z,22.22
2018-06-02T18:21:36.524Z,22.20
2018-06-02T18:23:37.940Z,22.19
2018-06-02T18:25:39.380Z,22.23
2018-06-02T18:27:40.802Z,22.20
2018-06-02T18:29:42.229Z,22.22
2018-06-02T18:31:43.765Z,22.29
2018-06-02T18:33:45.388Z,22.27
2018-06-02T18:36:28.030Z,22.20
2018-06-02T18:38:29.463Z,22.25
2018-06-02T18:40:31.088Z,22.22
2018-06-02T18:42:32.503Z,22.27
2018-06-02T18:45:15.177Z,22.19
2018-06-02T18:47:16.601Z,22.28
2018-06-02T18:49:18.023Z,22.32
2018-06-02T18:51:19.831Z,22.20
2018-06-02T18:53:21.260Z,22.29
2018-06-02T18:55:22.676Z,22.20
2018-06-02T18:57:24.343Z,22.29
2018-06-02T18:59:26.186Z,22.31
2018-06-02T19:01:27.602Z,22.17
2018-06-02T19:03:29.039Z,22.17
2018-06-02T19:05:30.471Z,22.10
2018-06-02T19:07:31.973Z,22.17
2018-06-02T19:09:33.393Z,22.13
2018-06-02T19:11:34.862Z,22.20
2018-06-02T19:13:36.369Z,22.23
2018-06-02T19:15:37.923Z,22.16
2018-06-02T19:17:39.439Z,22.13
2018-06-02T19:19:40.952Z,22.13
2018-06-02T19:21:42.383Z,22.09
2018-06-02T19:23:43.886Z,22.10
2018-06-02T19:25:45.402Z,22.13
2018-06-02T19:27:46.950Z,22.09
2018-06-02T19:29:48.458Z,22.01
2018-06-02T19:31:50.119Z,22.12
2018-06-02T19:33:51.892Z,22.09
2018-06-02T19:35:53.407Z,22.12
2018-06-02T19:37:54.934Z,22.14
2018-06-02T19:39:56.443Z,22.14
2018-06-02T19:41:57.956Z,22.14
2018-06-02T19:43:59.453Z,22.12
2018-06-02T19:46:00.937Z,22.01
2018-06-02T19:48:02.467Z,21.99
2018-06-02T19:50:03.982Z,21.85
2018-06-02T19:52:05.826Z,21.87
2018-06-02T19:54:07.345Z,21.87
2018-06-02T19:56:08.849Z,21.75
2018-06-02T19:58:10.688Z,21.79
2018-06-02T20:00:12.199Z,21.76
2018-06-02T20:02:14.041Z,21.79
2018-06-02T20:04:15.489Z,21.83
2018-06-02T20:06:16.961Z,21.95
2018-06-02T20:08:18.760Z,21.90
2018-06-02T20:10:20.401Z,21.76
2018-06-02T20:12:21.945Z,21.74
2018-06-02T20:14:23.549Z,21.67
2018-06-02T20:16:25.065Z,21.71
2018-06-02T20:18:26.613Z,21.72
2018-06-02T20:20:28.127Z,21.79
2018-06-02T20:22:29.645Z,21.81
2018-06-02T20:25:12.273Z,21.87
2018-06-02T20:27:13.953Z,21.83
2018-06-02T20:29:15.575Z,21.87
2018-06-02T20:31:17.242Z,21.87
2018-06-02T20:33:18.673Z,21.87
2018-06-02T20:36:01.274Z,21.90
2018-06-02T20:38:03.037Z,21.94
2018-06-02T20:40:04.522Z,21.85
2018-06-02T20:42:05.947Z,21.79
2018-06-02T20:44:07.384Z,21.78
2018-06-02T20:46:49.998Z,21.74
2018-06-02T20:48:51.420Z,21.79
2018-06-02T20:50:52.854Z,21.72
2018-06-02T20:52:54.272Z,21.75
2018-06-02T20:54:55.847Z,21.72
2018-06-02T20:56:57.315Z,21.81
2018-06-02T20:58:58.761Z,21.75
2018-06-02T21:01:00.186Z,21.79
2018-06-02T21:03:01.611Z,21.83
2018-06-02T21:05:44.083Z,21.90
2018-06-02T21:07:45.539Z,21.90
2018-06-02T21:09:47.052Z,21.87
2018-06-02T21:11:48.449Z,21.74
2018-06-02T21:13:50.081Z,21.69
2018-06-02T21:16:32.639Z,21.74
2018-06-02T21:18:34.065Z,21.71
2018-06-02T21:20:35.492Z,21.64
2018-06-02T21:22:37.007Z,21.69
2018-06-02T21:25:19.538Z,21.71
2018-06-02T21:27:20.934Z,21.61
2018-06-02T21:29:22.368Z,21.60
2018-06-02T21:31:23.968Z,21.53
2018-06-02T21:33:25.525Z,21.56
2018-06-02T21:36:07.944Z,21.57
2018-06-02T21:38:09.372Z,21.45
2018-06-02T21:40:10.791Z,21.29
2018-06-02T21:42:12.220Z,21.23
2018-06-02T21:44:13.648Z,21.24
2018-06-02T21:46:15.233Z,21.08
2018-06-02T21:48:16.902Z,21.06
2018-06-02T21:50:18.443Z,21.14
2018-06-02T21:52:20.896Z,21.13
2018-06-02T21:54:22.367Z,21.16
2018-06-02T21:56:23.860Z,21.23
2018-06-02T21:58:25.720Z,21.19
2018-06-02T22:00:27.209Z,21.20
2018-06-02T22:02:28.651Z,21.20
2018-06-02T22:04:30.080Z,21.20
2018-06-02T22:06:31.537Z,21.23
2018-06-02T22:08:32.993Z,21.20
2018-06-02T22:10:34.486Z,21.20
2018-06-02T22:12:35.953Z,21.09
2018-06-02T22:14:37.659Z,21.14
2018-06-02T22:16:39.182Z,21.02
2018-06-02T22:18:40.988Z,21.01
2018-06-02T22:20:42.792Z,21.04
2018-06-02T22:22:44.274Z,21.05
2018-06-02T22:24:45.790Z,20.95
2018-06-02T22:26:47.344Z,20.99
2018-06-02T22:28:48.788Z,20.90
2018-06-02T22:30:51.307Z,20.86
2018-06-02T22:32:52.831Z,20.93
2018-06-02T22:34:54.335Z,20.84
2018-06-02T22:36:55.848Z,20.74
2018-06-02T22:39:38.448Z,20.79
2018-06-02T22:41:39.870Z,20.74
2018-06-02T22:43:41.294Z,20.77
2018-06-02T22:45:42.813Z,20.76
2018-06-02T22:47:44.240Z,20.74
2018-06-02T22:49:45.704Z,20.71
2018-06-02T22:51:47.138Z,20.59
2018-06-02T22:53:48.579Z,20.66
2018-06-02T22:55:50.114Z,20.58
2018-06-02T22:57:51.539Z,20.64
2018-06-02T22:59:52.967Z,20.47
2018-06-02T23:01:54.411Z,20.33
2018-06-02T23:03:55.842Z,20.21
2018-06-02T23:05:57.264Z,20.24
2018-06-02T23:07:58.772Z,20.24
2018-06-02T23:10:00.178Z,20.35
2018-06-02T23:12:01.633Z,20.30
2018-06-02T23:14:03.082Z,20.33
2018-06-02T23:16:45.673Z,20.31
2018-06-02T23:18:47.095Z,20.23
2018-06-02T23:20:48.725Z,20.23
2018-06-02T23:22:50.200Z,20.27
2018-06-02T23:25:32.175Z,20.31
2018-06-02T23:27:33.546Z,20.27
2018-06-02T23:29:34.968Z,20.23
2018-06-02T23:31:36.535Z,20.21
2018-06-02T23:33:38.182Z,20.23
2018-06-02T23:36:20.627Z,20.27
2018-06-02T23:38:22.077Z,20.23
2018-06-02T23:40:23.507Z,20.15
2018-06-02T23:42:24.940Z,20.24
2018-06-02T23:45:07.361Z,20.23
2018-06-02T23:47:08.800Z,20.12
2018-06-02T23:49:10.217Z,20.15
2018-06-02T23:51:11.674Z,20.09
2018-06-02T23:53:13.128Z,20.03
2018-06-02T23:55:55.555Z,20.05
2018-06-02T23:57:56.981Z,20.03
2018-06-02T23:59:58.408Z,20.02
